Track Склярова Карина

Time Latitude Longitude Accuracy (66% radius in meters) Altitude (meters) Speed (km/hour) Bearing (degrees) Battery (%) GPS flag
03:32:04 51.899766 107.666705 5 674 1.25 323.79998779297 27 1 delete
03:31:58 51.899670 107.666781 6 676 1.460000038147 321.20001220703 27 1 delete
03:31:54 51.899618 107.666850 7 675 0 0 27 1 delete
03:31:50 51.899593 107.666903 9 675 2.4000000953674 327.29998779297 27 1 delete
03:31:42 51.899495 107.666946 6 677 1.3099999427795 15.60000038147 27 1 delete
03:31:41 51.899483 107.666946 5 676 0.76999998092651 2.5 27 1 delete
03:31:35 51.899402 107.666951 4 679 1.5 344.5 27 1 delete
03:31:30 51.899310 107.666996 5 680 1.6900000572205 358.20001220703 27 1 delete
03:31:17 51.899202 107.666990 4 684 0.41999998688698 50.299999237061 27 1 delete
03:31:07 51.899199 107.666990 4 681 0 0 27 1 delete
03:30:55 51.899195 107.666988 6 680 0 0 27 1 delete
03:30:44 51.899197 107.666982 5 681 0 0 27 1 delete
03:30:32 51.899200 107.666945 7 677 0.60000002384186 186.80000305176 27 1 delete
03:30:30 51.899211 107.666948 7 677 0.62999999523163 204.10000610352 27 1 delete
03:30:20 51.899259 107.666950 7 680 0.25 247.30000305176 27 1 delete
03:30:13 51.899308 107.666954 6 681 1.1699999570847 174.69999694824 27 1 delete
03:30:09 51.899359 107.666946 7 680 1.3099999427795 185.39999389648 27 1 delete
03:30:05 51.899404 107.666949 6 681 0.75999999046326 156.10000610352 27 1 delete
03:30:00 51.899489 107.666905 4 684 2.6700000762939 187.80000305176 27 1 delete
03:29:56 51.899555 107.666890 4 684 0.91000002622604 160.5 27 1 delete
03:29:54 51.899585 107.666868 4 683 0.93999999761581 160.69999694824 27 1 delete
03:29:48 51.899669 107.666792 4 681 1.1799999475479 165.39999389648 38 1 delete
03:29:46 51.899698 107.666771 5 684 0.98000001907349 152.80000305176 38 1 delete
03:29:38 51.899750 107.666693 8 682 1.5199999809265 140 38 1 delete
03:29:34 51.899773 107.666624 7 679 0.75 122.40000152588 38 1 delete
03:29:29 51.899806 107.666572 8 679 0.58999997377396 142.5 38 1 delete
03:29:22 51.899822 107.666527 7 676 0 0 38 1 delete
03:29:12 51.899886 107.666485 8 678 1.960000038147 177.5 38 1 delete
03:29:10 51.899936 107.666492 8 677 1.2300000190735 188.10000610352 38 1 delete
03:29:07 51.899980 107.666506 6 680 1.4800000190735 164.19999694824 38 1 delete
03:28:59 51.900064 107.666524 5 686 0 0 38 1 delete
03:28:58 51.900072 107.666527 5 686 0.18000000715256 253.10000610352 38 1 delete
03:28:53 51.900120 107.666658 4 678 2.3099999427795 254.10000610352 38 1 delete
03:28:45 51.900158 107.666826 5 679 0 0 38 1 delete
03:28:32 51.900183 107.666825 5 679 0 0 38 1 delete
03:28:22 51.900175 107.666835 5 680 0 0 38 1 delete
03:28:08 51.900128 107.666817 6 678 0.95999997854233 171.80000305176 38 1 delete
03:27:58 51.900180 107.666780 3 681 0 0 38 1 delete
03:27:47 51.900181 107.666779 4 681 0 0 38 1 delete
03:27:35 51.900186 107.666775 4 680 0 0 38 1 delete
03:27:24 51.900215 107.666793 4 681 0.93999999761581 104.90000152588 38 1 delete
03:27:19 51.900213 107.666737 4 681 0 0 38 1 delete
03:27:13 51.900155 107.666622 5 681 1.6799999475479 82.300003051758 38 1 delete
03:27:04 51.900132 107.666469 6 681 0.95999997854233 78.300003051758 38 1 delete
03:27:02 51.900131 107.666434 6 680 1.0099999904633 85 38 1 delete
03:26:55 51.900101 107.666319 5 679 1.2200000286102 59.700000762939 38 1 delete
03:26:51 51.900063 107.666252 4 678 1.0700000524521 56.599998474121 38 1 delete
03:26:47 51.900030 107.666195 4 678 0.62999999523163 68.699996948242 38 1 delete
03:26:40 51.900018 107.666148 3 678 0 0 38 1 delete
03:26:28 51.900033 107.666083 4 678 0.85000002384186 157.60000610352 38 1 delete